Barkley Regional Airport
KPAH : now visible

Airfield :











YOU CAN JOIN US ON...

 
LOGIN :

Register | Disclaimer

   EN    FR    IT 

 









Legend :    VFR   Marginal VFR   IFR   Intensive IFR   Very Intensive IFR
Visi :
Ceiling :
>= 8 km
>= 3000ft
5 to 8 km
1000 to 3000 ft
1500m to 5 km
500 to 1000 ft
800 to 1500m
200 to 500 ft
< 800m
< 200 ft
Symbols :   Thunderstorms  Fog  Heavy snow  Heavy precipitations  Wind > 20 kt






- Airport Elevation : 410 ft
- IATA code : PAH


KPAH - Barkley Regional

CURRENT METAR :
  • 270053Z 04004KT 9SM CLR 29/22 A2995 RMK AO2 SLP137 T02940217

EXPIRED METARs :
  • 262353Z 04005KT 10SM CLR 31/23 A2994 RMK AO2 SLP133 T03110228 10339 20311 58005
  • 262253Z 04008KT 10SM CLR 32/22 A2994 RMK AO2 SLP135 T03220222

TAF KPAH
Valid from the 27 at 00:00 until the 28 at 00:00 UTC


262324Z 2700/2724 VRB03KT P6SM FEW250
FM270900 00000KT 5SM BR SKC
FM271300 01004KT P6SM FEW035
KZME FIR / North America



MET'MAP, your aeronautical weather chart ! - Copyright ORBIFLY December 2007 - Disclaimer

ORBIFLY MET'MAP TEAM :

Programming & Development : Alexandra Zaïnal
Concept & original design : Baudouin d'Aumeries
Assistance for programming : Marc-Olivier Méhu
Technical & hardware support : Manuel Goepfert

Contact : metmap@orbifly.com




SOURCES & CREDITS :

   NOAA       Earth
Advisory